sensor_id;sensor_type;location;lat;lon;timestamp;P1;durP1;ratioP1;P2;durP2;ratioP2
8574;SDS011;4325;42.520;27.448;2023-02-24T00:01:36;17.57;;;6.03;;
8574;SDS011;4325;42.520;27.448;2023-02-24T00:04:05;13.97;;;4.60;;
8574;SDS011;4325;42.520;27.448;2023-02-24T00:06:33;12.63;;;4.80;;
8574;SDS011;4325;42.520;27.448;2023-02-24T00:09:03;16.10;;;5.40;;
8574;SDS011;4325;42.520;27.448;2023-02-24T00:11:32;18.10;;;4.83;;
8574;SDS011;4325;42.520;27.448;2023-02-24T00:13:59;17.40;;;5.00;;
8574;SDS011;4325;42.520;27.448;2023-02-24T00:16:26;15.90;;;4.73;;
8574;SDS011;4325;42.520;27.448;2023-02-24T00:18:53;17.50;;;5.20;;
8574;SDS011;4325;42.520;27.448;2023-02-24T00:21:20;15.17;;;5.13;;
8574;SDS011;4325;42.520;27.448;2023-02-24T00:23:47;11.87;;;5.07;;
8574;SDS011;4325;42.520;27.448;2023-02-24T00:26:15;13.30;;;5.40;;
8574;SDS011;4325;42.520;27.448;2023-02-24T00:28:42;16.77;;;4.60;;
8574;SDS011;4325;42.520;27.448;2023-02-24T00:31:10;16.80;;;5.47;;
8574;SDS011;4325;42.520;27.448;2023-02-24T00:33:38;22.17;;;4.83;;
8574;SDS011;4325;42.520;27.448;2023-02-24T00:36:06;16.20;;;4.73;;
8574;SDS011;4325;42.520;27.448;2023-02-24T00:38:35;15.27;;;5.70;;
8574;SDS011;4325;42.520;27.448;2023-02-24T00:41:09;18.80;;;5.07;;
8574;SDS011;4325;42.520;27.448;2023-02-24T00:43:39;14.47;;;5.13;;
8574;SDS011;4325;42.520;27.448;2023-02-24T00:46:11;21.10;;;5.30;;
8574;SDS011;4325;42.520;27.448;2023-02-24T00:48:39;16.60;;;4.70;;
8574;SDS011;4325;42.520;27.448;2023-02-24T00:51:07;16.40;;;4.90;;
8574;SDS011;4325;42.520;27.448;2023-02-24T00:53:35;15.07;;;5.13;;
8574;SDS011;4325;42.520;27.448;2023-02-24T00:56:04;18.67;;;5.40;;
8574;SDS011;4325;42.520;27.448;2023-02-24T01:01:02;17.83;;;4.70;;
8574;SDS011;4325;42.520;27.448;2023-02-24T01:03:29;18.60;;;5.20;;
8574;SDS011;4325;42.520;27.448;2023-02-24T01:05:59;19.77;;;4.90;;
8574;SDS011;4325;42.520;27.448;2023-02-24T01:08:27;15.63;;;4.90;;
8574;SDS011;4325;42.520;27.448;2023-02-24T01:10:55;12.10;;;5.27;;
8574;SDS011;4325;42.520;27.448;2023-02-24T01:13:36;34.20;;;5.70;;
8574;SDS011;4325;42.520;27.448;2023-02-24T01:16:05;24.70;;;5.37;;
8574;SDS011;4325;42.520;27.448;2023-02-24T01:18:32;17.53;;;4.90;;
8574;SDS011;4325;42.520;27.448;2023-02-24T01:20:59;13.27;;;5.07;;
8574;SDS011;4325;42.520;27.448;2023-02-24T01:23:26;15.47;;;4.83;;
8574;SDS011;4325;42.520;27.448;2023-02-24T01:25:53;15.87;;;5.63;;
8574;SDS011;4325;42.520;27.448;2023-02-24T01:28:22;18.70;;;5.50;;
8574;SDS011;4325;42.520;27.448;2023-02-24T01:30:49;15.10;;;5.17;;
8574;SDS011;4325;42.520;27.448;2023-02-24T01:33:17;13.50;;;5.40;;
8574;SDS011;4325;42.520;27.448;2023-02-24T01:35:45;17.90;;;5.57;;
8574;SDS011;4325;42.520;27.448;2023-02-24T01:38:12;18.70;;;5.00;;
8574;SDS011;4325;42.520;27.448;2023-02-24T01:40:39;19.23;;;5.33;;
8574;SDS011;4325;42.520;27.448;2023-02-24T01:43:08;13.70;;;5.10;;
8574;SDS011;4325;42.520;27.448;2023-02-24T01:45:37;16.10;;;5.57;;
8574;SDS011;4325;42.520;27.448;2023-02-24T01:48:06;19.30;;;5.10;;
8574;SDS011;4325;42.520;27.448;2023-02-24T01:50:36;18.67;;;5.83;;
8574;SDS011;4325;42.520;27.448;2023-02-24T01:53:04;19.77;;;5.73;;
8574;SDS011;4325;42.520;27.448;2023-02-24T01:55:35;18.07;;;5.40;;
8574;SDS011;4325;42.520;27.448;2023-02-24T01:58:07;25.10;;;6.10;;
8574;SDS011;4325;42.520;27.448;2023-02-24T02:00:39;17.40;;;5.23;;
8574;SDS011;4325;42.520;27.448;2023-02-24T02:03:12;16.07;;;4.90;;
8574;SDS011;4325;42.520;27.448;2023-02-24T02:05:51;22.00;;;6.40;;
8574;SDS011;4325;42.520;27.448;2023-02-24T02:08:20;15.87;;;4.47;;
8574;SDS011;4325;42.520;27.448;2023-02-24T02:10:49;25.40;;;5.70;;
8574;SDS011;4325;42.520;27.448;2023-02-24T02:13:22;17.33;;;5.47;;
8574;SDS011;4325;42.520;27.448;2023-02-24T02:16:01;16.03;;;5.13;;
8574;SDS011;4325;42.520;27.448;2023-02-24T02:18:48;19.83;;;5.43;;
8574;SDS011;4325;42.520;27.448;2023-02-24T02:24:33;20.53;;;4.73;;
8574;SDS011;4325;42.520;27.448;2023-02-24T02:30:14;15.93;;;5.27;;
8574;SDS011;4325;42.520;27.448;2023-02-24T02:32:58;17.47;;;5.47;;
8574;SDS011;4325;42.520;27.448;2023-02-24T02:35:48;12.93;;;4.17;;
8574;SDS011;4325;42.520;27.448;2023-02-24T02:38:25;18.77;;;5.00;;
8574;SDS011;4325;42.520;27.448;2023-02-24T02:41:00;12.80;;;4.93;;
8574;SDS011;4325;42.520;27.448;2023-02-24T02:43:33;16.30;;;5.80;;
8574;SDS011;4325;42.520;27.448;2023-02-24T02:46:07;19.87;;;5.33;;
8574;SDS011;4325;42.520;27.448;2023-02-24T02:48:42;17.50;;;5.00;;
8574;SDS011;4325;42.520;27.448;2023-02-24T02:51:16;17.27;;;5.03;;
8574;SDS011;4325;42.520;27.448;2023-02-24T02:53:46;15.90;;;5.47;;
8574;SDS011;4325;42.520;27.448;2023-02-24T02:56:19;17.27;;;5.13;;
8574;SDS011;4325;42.520;27.448;2023-02-24T02:58:51;9.97;;;4.53;;
8574;SDS011;4325;42.520;27.448;2023-02-24T03:01:22;20.13;;;4.83;;
8574;SDS011;4325;42.520;27.448;2023-02-24T03:03:53;16.40;;;5.23;;
8574;SDS011;4325;42.520;27.448;2023-02-24T03:06:27;20.87;;;5.50;;
8574;SDS011;4325;42.520;27.448;2023-02-24T03:08:57;17.67;;;4.50;;
8574;SDS011;4325;42.520;27.448;2023-02-24T03:11:35;13.87;;;4.57;;
8574;SDS011;4325;42.520;27.448;2023-02-24T03:14:02;17.73;;;5.30;;
8574;SDS011;4325;42.520;27.448;2023-02-24T03:16:36;18.43;;;5.03;;
8574;SDS011;4325;42.520;27.448;2023-02-24T03:19:05;14.07;;;5.63;;
8574;SDS011;4325;42.520;27.448;2023-02-24T03:21:37;16.17;;;5.33;;
8574;SDS011;4325;42.520;27.448;2023-02-24T03:24:06;22.03;;;6.03;;
8574;SDS011;4325;42.520;27.448;2023-02-24T03:26:36;13.00;;;5.20;;
8574;SDS011;4325;42.520;27.448;2023-02-24T03:29:08;21.63;;;5.90;;
8574;SDS011;4325;42.520;27.448;2023-02-24T03:31:43;17.67;;;5.63;;
8574;SDS011;4325;42.520;27.448;2023-02-24T03:34:13;15.00;;;5.27;;
8574;SDS011;4325;42.520;27.448;2023-02-24T03:36:45;19.83;;;5.03;;
8574;SDS011;4325;42.520;27.448;2023-02-24T03:39:13;20.80;;;6.10;;
8574;SDS011;4325;42.520;27.448;2023-02-24T03:41:42;23.00;;;6.50;;
8574;SDS011;4325;42.520;27.448;2023-02-24T03:44:14;14.00;;;5.70;;
8574;SDS011;4325;42.520;27.448;2023-02-24T03:46:41;18.73;;;5.40;;
8574;SDS011;4325;42.520;27.448;2023-02-24T03:49:11;12.97;;;5.30;;
8574;SDS011;4325;42.520;27.448;2023-02-24T03:51:41;14.23;;;5.40;;
8574;SDS011;4325;42.520;27.448;2023-02-24T03:54:18;19.27;;;5.23;;
8574;SDS011;4325;42.520;27.448;2023-02-24T03:56:59;23.27;;;6.17;;
8574;SDS011;4325;42.520;27.448;2023-02-24T03:59:43;18.00;;;5.60;;
8574;SDS011;4325;42.520;27.448;2023-02-24T04:02:19;22.87;;;6.10;;
8574;SDS011;4325;42.520;27.448;2023-02-24T04:04:50;17.40;;;5.73;;
8574;SDS011;4325;42.520;27.448;2023-02-24T04:07:22;12.73;;;5.53;;
8574;SDS011;4325;42.520;27.448;2023-02-24T04:09:59;14.47;;;5.20;;
8574;SDS011;4325;42.520;27.448;2023-02-24T04:12:31;19.27;;;5.30;;
8574;SDS011;4325;42.520;27.448;2023-02-24T04:15:08;20.53;;;5.30;;
8574;SDS011;4325;42.520;27.448;2023-02-24T04:17:41;15.03;;;5.07;;
8574;SDS011;4325;42.520;27.448;2023-02-24T04:20:12;17.20;;;5.40;;
8574;SDS011;4325;42.520;27.448;2023-02-24T04:22:42;24.23;;;7.10;;
8574;SDS011;4325;42.520;27.448;2023-02-24T04:25:14;12.83;;;5.97;;
8574;SDS011;4325;42.520;27.448;2023-02-24T04:27:44;24.57;;;7.17;;
8574;SDS011;4325;42.520;27.448;2023-02-24T04:30:12;25.20;;;7.43;;
8574;SDS011;4325;42.520;27.448;2023-02-24T04:32:40;22.73;;;7.20;;
8574;SDS011;4325;42.520;27.448;2023-02-24T04:35:09;21.23;;;8.00;;
8574;SDS011;4325;42.520;27.448;2023-02-24T04:37:38;25.13;;;8.53;;
8574;SDS011;4325;42.520;27.448;2023-02-24T04:40:09;25.17;;;10.03;;
8574;SDS011;4325;42.520;27.448;2023-02-24T04:42:38;22.37;;;9.47;;
8574;SDS011;4325;42.520;27.448;2023-02-24T04:45:10;28.07;;;8.60;;
8574;SDS011;4325;42.520;27.448;2023-02-24T04:47:38;22.23;;;7.90;;
8574;SDS011;4325;42.520;27.448;2023-02-24T04:50:07;18.23;;;8.23;;
8574;SDS011;4325;42.520;27.448;2023-02-24T04:52:35;20.47;;;7.73;;
8574;SDS011;4325;42.520;27.448;2023-02-24T04:55:03;20.50;;;8.27;;
8574;SDS011;4325;42.520;27.448;2023-02-24T04:57:34;16.40;;;8.30;;
8574;SDS011;4325;42.520;27.448;2023-02-24T05:00:04;13.67;;;8.30;;
8574;SDS011;4325;42.520;27.448;2023-02-24T05:02:44;22.70;;;7.93;;
8574;SDS011;4325;42.520;27.448;2023-02-24T05:05:12;25.37;;;7.80;;
8574;SDS011;4325;42.520;27.448;2023-02-24T05:07:39;15.47;;;8.10;;
8574;SDS011;4325;42.520;27.448;2023-02-24T05:10:06;27.30;;;8.27;;
8574;SDS011;4325;42.520;27.448;2023-02-24T05:12:33;19.30;;;8.23;;
8574;SDS011;4325;42.520;27.448;2023-02-24T05:15:00;26.63;;;8.63;;
8574;SDS011;4325;42.520;27.448;2023-02-24T05:17:29;27.20;;;9.93;;
8574;SDS011;4325;42.520;27.448;2023-02-24T05:19:56;32.73;;;10.67;;
8574;SDS011;4325;42.520;27.448;2023-02-24T05:22:41;25.63;;;11.77;;
8574;SDS011;4325;42.520;27.448;2023-02-24T05:25:08;25.63;;;12.57;;
8574;SDS011;4325;42.520;27.448;2023-02-24T05:27:38;31.50;;;16.97;;
8574;SDS011;4325;42.520;27.448;2023-02-24T05:30:05;25.27;;;9.57;;
8574;SDS011;4325;42.520;27.448;2023-02-24T05:32:35;30.17;;;8.67;;
8574;SDS011;4325;42.520;27.448;2023-02-24T05:35:03;19.43;;;7.53;;
8574;SDS011;4325;42.520;27.448;2023-02-24T05:37:30;22.10;;;8.30;;
8574;SDS011;4325;42.520;27.448;2023-02-24T05:39:59;21.27;;;9.07;;
8574;SDS011;4325;42.520;27.448;2023-02-24T05:42:28;33.23;;;8.57;;
8574;SDS011;4325;42.520;27.448;2023-02-24T05:44:59;19.13;;;7.40;;
8574;SDS011;4325;42.520;27.448;2023-02-24T05:47:26;21.17;;;7.20;;
8574;SDS011;4325;42.520;27.448;2023-02-24T05:49:54;21.53;;;8.20;;
8574;SDS011;4325;42.520;27.448;2023-02-24T05:52:23;17.10;;;7.73;;
8574;SDS011;4325;42.520;27.448;2023-02-24T05:54:50;25.13;;;8.03;;
8574;SDS011;4325;42.520;27.448;2023-02-24T05:57:18;20.97;;;8.10;;
8574;SDS011;4325;42.520;27.448;2023-02-24T05:59:47;19.20;;;7.80;;
8574;SDS011;4325;42.520;27.448;2023-02-24T06:02:17;20.00;;;8.00;;
8574;SDS011;4325;42.520;27.448;2023-02-24T06:04:52;24.10;;;7.63;;
8574;SDS011;4325;42.520;27.448;2023-02-24T06:07:21;17.07;;;6.97;;
8574;SDS011;4325;42.520;27.448;2023-02-24T06:09:51;20.50;;;7.60;;
8574;SDS011;4325;42.520;27.448;2023-02-24T06:12:20;14.93;;;7.07;;
8574;SDS011;4325;42.520;27.448;2023-02-24T06:14:48;18.10;;;7.90;;
8574;SDS011;4325;42.520;27.448;2023-02-24T06:17:17;21.50;;;8.43;;
8574;SDS011;4325;42.520;27.448;2023-02-24T06:19:45;16.53;;;7.57;;
8574;SDS011;4325;42.520;27.448;2023-02-24T06:22:14;23.80;;;7.73;;
8574;SDS011;4325;42.520;27.448;2023-02-24T06:24:45;25.93;;;8.20;;
8574;SDS011;4325;42.520;27.448;2023-02-24T06:27:14;20.20;;;7.73;;
8574;SDS011;4325;42.520;27.448;2023-02-24T06:29:43;20.97;;;7.40;;
8574;SDS011;4325;42.520;27.448;2023-02-24T06:32:12;21.30;;;7.93;;
8574;SDS011;4325;42.520;27.448;2023-02-24T06:34:39;19.90;;;7.90;;
8574;SDS011;4325;42.520;27.448;2023-02-24T06:37:06;36.13;;;10.90;;
8574;SDS011;4325;42.520;27.448;2023-02-24T06:39:37;23.33;;;10.67;;
8574;SDS011;4325;42.520;27.448;2023-02-24T06:42:06;32.17;;;9.67;;
8574;SDS011;4325;42.520;27.448;2023-02-24T06:44:35;17.50;;;8.43;;
8574;SDS011;4325;42.520;27.448;2023-02-24T06:47:03;21.10;;;8.90;;
8574;SDS011;4325;42.520;27.448;2023-02-24T06:49:32;21.13;;;7.70;;
8574;SDS011;4325;42.520;27.448;2023-02-24T06:52:00;18.10;;;9.40;;
8574;SDS011;4325;42.520;27.448;2023-02-24T06:54:28;27.30;;;14.10;;
8574;SDS011;4325;42.520;27.448;2023-02-24T06:56:55;20.57;;;9.60;;
8574;SDS011;4325;42.520;27.448;2023-02-24T06:59:25;19.17;;;8.90;;
8574;SDS011;4325;42.520;27.448;2023-02-24T07:01:53;15.50;;;8.07;;
8574;SDS011;4325;42.520;27.448;2023-02-24T07:04:21;22.03;;;8.30;;
8574;SDS011;4325;42.520;27.448;2023-02-24T07:06:49;25.97;;;8.77;;
8574;SDS011;4325;42.520;27.448;2023-02-24T07:09:20;14.67;;;7.27;;
8574;SDS011;4325;42.520;27.448;2023-02-24T07:11:49;18.00;;;7.70;;
8574;SDS011;4325;42.520;27.448;2023-02-24T07:14:18;22.90;;;10.07;;
8574;SDS011;4325;42.520;27.448;2023-02-24T07:16:47;19.63;;;8.90;;
8574;SDS011;4325;42.520;27.448;2023-02-24T07:19:19;23.77;;;7.83;;
8574;SDS011;4325;42.520;27.448;2023-02-24T07:21:47;15.20;;;6.27;;
8574;SDS011;4325;42.520;27.448;2023-02-24T07:24:17;19.10;;;8.33;;
8574;SDS011;4325;42.520;27.448;2023-02-24T07:26:53;17.27;;;6.90;;
8574;SDS011;4325;42.520;27.448;2023-02-24T07:29:22;14.27;;;7.07;;
8574;SDS011;4325;42.520;27.448;2023-02-24T07:31:51;13.03;;;7.13;;
8574;SDS011;4325;42.520;27.448;2023-02-24T07:34:21;14.33;;;5.57;;
8574;SDS011;4325;42.520;27.448;2023-02-24T07:36:49;15.53;;;6.40;;
8574;SDS011;4325;42.520;27.448;2023-02-24T07:39:17;15.03;;;5.07;;
8574;SDS011;4325;42.520;27.448;2023-02-24T07:41:47;15.10;;;5.40;;
8574;SDS011;4325;42.520;27.448;2023-02-24T07:44:14;16.10;;;5.30;;
8574;SDS011;4325;42.520;27.448;2023-02-24T07:46:42;13.20;;;5.30;;
8574;SDS011;4325;42.520;27.448;2023-02-24T07:49:12;12.07;;;4.80;;
8574;SDS011;4325;42.520;27.448;2023-02-24T07:51:42;14.07;;;5.47;;
8574;SDS011;4325;42.520;27.448;2023-02-24T07:54:09;19.67;;;5.97;;
8574;SDS011;4325;42.520;27.448;2023-02-24T07:56:39;16.23;;;6.00;;
8574;SDS011;4325;42.520;27.448;2023-02-24T07:59:13;20.23;;;5.83;;
8574;SDS011;4325;42.520;27.448;2023-02-24T08:01:43;18.13;;;6.33;;
8574;SDS011;4325;42.520;27.448;2023-02-24T08:04:17;13.87;;;5.17;;
8574;SDS011;4325;42.520;27.448;2023-02-24T08:06:47;13.43;;;5.07;;
8574;SDS011;4325;42.520;27.448;2023-02-24T08:09:20;15.57;;;5.50;;
8574;SDS011;4325;42.520;27.448;2023-02-24T08:12:08;10.40;;;5.33;;
8574;SDS011;4325;42.520;27.448;2023-02-24T08:14:35;16.63;;;7.07;;
8574;SDS011;4325;42.520;27.448;2023-02-24T08:17:08;9.83;;;4.40;;
8574;SDS011;4325;42.520;27.448;2023-02-24T08:19:42;20.80;;;5.87;;
8574;SDS011;4325;42.520;27.448;2023-02-24T08:22:10;12.63;;;5.23;;
8574;SDS011;4325;42.520;27.448;2023-02-24T08:24:50;16.80;;;4.87;;
8574;SDS011;4325;42.520;27.448;2023-02-24T08:27:18;12.93;;;5.67;;
8574;SDS011;4325;42.520;27.448;2023-02-24T08:29:47;12.83;;;5.87;;
8574;SDS011;4325;42.520;27.448;2023-02-24T08:32:26;11.53;;;4.93;;
8574;SDS011;4325;42.520;27.448;2023-02-24T08:34:59;14.17;;;5.20;;
8574;SDS011;4325;42.520;27.448;2023-02-24T08:37:29;17.43;;;5.20;;
8574;SDS011;4325;42.520;27.448;2023-02-24T08:40:04;11.53;;;5.33;;
8574;SDS011;4325;42.520;27.448;2023-02-24T08:42:53;10.63;;;4.60;;
8574;SDS011;4325;42.520;27.448;2023-02-24T08:45:22;11.07;;;5.00;;
8574;SDS011;4325;42.520;27.448;2023-02-24T08:47:50;10.77;;;5.43;;
8574;SDS011;4325;42.520;27.448;2023-02-24T08:50:26;20.97;;;4.60;;
8574;SDS011;4325;42.520;27.448;2023-02-24T08:52:55;14.47;;;5.10;;
8574;SDS011;4325;42.520;27.448;2023-02-24T08:55:22;11.67;;;4.37;;
8574;SDS011;4325;42.520;27.448;2023-02-24T08:57:54;8.33;;;4.43;;
8574;SDS011;4325;42.520;27.448;2023-02-24T09:00:25;13.80;;;4.70;;
8574;SDS011;4325;42.520;27.448;2023-02-24T09:03:12;9.20;;;4.00;;
8574;SDS011;4325;42.520;27.448;2023-02-24T09:05:56;10.00;;;4.40;;
8574;SDS011;4325;42.520;27.448;2023-02-24T09:08:23;9.47;;;4.07;;
8574;SDS011;4325;42.520;27.448;2023-02-24T09:10:57;13.67;;;4.37;;
8574;SDS011;4325;42.520;27.448;2023-02-24T09:13:24;10.83;;;4.67;;
8574;SDS011;4325;42.520;27.448;2023-02-24T09:15:58;8.57;;;4.30;;
8574;SDS011;4325;42.520;27.448;2023-02-24T09:18:26;15.97;;;4.20;;
8574;SDS011;4325;42.520;27.448;2023-02-24T09:21:07;11.55;;;4.45;;
8574;SDS011;4325;42.520;27.448;2023-02-24T09:24:00;11.50;;;4.50;;
8574;SDS011;4325;42.520;27.448;2023-02-24T09:26:31;13.20;;;4.10;;
8574;SDS011;4325;42.520;27.448;2023-02-24T09:29:07;6.70;;;3.80;;
8574;SDS011;4325;42.520;27.448;2023-02-24T09:31:56;11.33;;;4.93;;
8574;SDS011;4325;42.520;27.448;2023-02-24T09:34:28;12.73;;;4.50;;
8574;SDS011;4325;42.520;27.448;2023-02-24T09:36:57;11.83;;;4.60;;
8574;SDS011;4325;42.520;27.448;2023-02-24T09:39:27;12.40;;;4.70;;
8574;SDS011;4325;42.520;27.448;2023-02-24T09:41:56;12.17;;;4.60;;
8574;SDS011;4325;42.520;27.448;2023-02-24T09:44:49;14.37;;;4.57;;
8574;SDS011;4325;42.520;27.448;2023-02-24T09:47:21;14.57;;;4.57;;
8574;SDS011;4325;42.520;27.448;2023-02-24T09:50:05;11.97;;;4.20;;
8574;SDS011;4325;42.520;27.448;2023-02-24T09:52:48;14.70;;;4.57;;
8574;SDS011;4325;42.520;27.448;2023-02-24T09:55:17;10.97;;;5.07;;
8574;SDS011;4325;42.520;27.448;2023-02-24T09:58:01;11.33;;;4.37;;
8574;SDS011;4325;42.520;27.448;2023-02-24T10:00:51;9.03;;;4.27;;
8574;SDS011;4325;42.520;27.448;2023-02-24T10:03:24;12.10;;;4.47;;
8574;SDS011;4325;42.520;27.448;2023-02-24T10:06:12;11.80;;;4.07;;
8574;SDS011;4325;42.520;27.448;2023-02-24T10:08:47;11.07;;;4.37;;
8574;SDS011;4325;42.520;27.448;2023-02-24T10:11:18;9.00;;;4.60;;
8574;SDS011;4325;42.520;27.448;2023-02-24T10:13:57;20.60;;;4.37;;
8574;SDS011;4325;42.520;27.448;2023-02-24T10:16:29;12.90;;;4.50;;
8574;SDS011;4325;42.520;27.448;2023-02-24T10:19:10;11.23;;;5.03;;
8574;SDS011;4325;42.520;27.448;2023-02-24T10:21:44;11.43;;;4.53;;
8574;SDS011;4325;42.520;27.448;2023-02-24T10:24:28;9.70;;;4.43;;
8574;SDS011;4325;42.520;27.448;2023-02-24T10:27:02;11.27;;;4.67;;
8574;SDS011;4325;42.520;27.448;2023-02-24T10:29:41;9.63;;;4.00;;
8574;SDS011;4325;42.520;27.448;2023-02-24T10:32:20;12.47;;;4.20;;
8574;SDS011;4325;42.520;27.448;2023-02-24T10:34:58;12.67;;;4.43;;
8574;SDS011;4325;42.520;27.448;2023-02-24T10:37:26;8.87;;;4.47;;
8574;SDS011;4325;42.520;27.448;2023-02-24T10:39:56;10.37;;;3.80;;
8574;SDS011;4325;42.520;27.448;2023-02-24T10:42:25;6.10;;;3.37;;
8574;SDS011;4325;42.520;27.448;2023-02-24T10:45:03;11.00;;;4.37;;
8574;SDS011;4325;42.520;27.448;2023-02-24T10:47:36;8.47;;;3.70;;
8574;SDS011;4325;42.520;27.448;2023-02-24T10:50:17;11.90;;;4.43;;
8574;SDS011;4325;42.520;27.448;2023-02-24T10:52:47;11.07;;;4.43;;
8574;SDS011;4325;42.520;27.448;2023-02-24T10:55:37;10.68;;;4.40;;
8574;SDS011;4325;42.520;27.448;2023-02-24T10:58:20;10.70;;;4.17;;
8574;SDS011;4325;42.520;27.448;2023-02-24T11:01:06;9.18;;;3.75;;
8574;SDS011;4325;42.520;27.448;2023-02-24T11:03:46;15.03;;;4.10;;
8574;SDS011;4325;42.520;27.448;2023-02-24T11:06:26;10.30;;;4.47;;
8574;SDS011;4325;42.520;27.448;2023-02-24T11:09:24;7.23;;;3.67;;
8574;SDS011;4325;42.520;27.448;2023-02-24T11:12:02;9.20;;;4.47;;
8574;SDS011;4325;42.520;27.448;2023-02-24T11:14:50;9.03;;;3.80;;
8574;SDS011;4325;42.520;27.448;2023-02-24T11:17:44;7.20;;;4.10;;
8574;SDS011;4325;42.520;27.448;2023-02-24T11:20:17;10.87;;;4.43;;
8574;SDS011;4325;42.520;27.448;2023-02-24T11:22:54;9.97;;;4.30;;
8574;SDS011;4325;42.520;27.448;2023-02-24T11:25:23;9.73;;;4.13;;
8574;SDS011;4325;42.520;27.448;2023-02-24T11:27:54;8.20;;;3.90;;
8574;SDS011;4325;42.520;27.448;2023-02-24T11:30:28;12.50;;;4.40;;
8574;SDS011;4325;42.520;27.448;2023-02-24T11:35:55;11.98;;;4.25;;
8574;SDS011;4325;42.520;27.448;2023-02-24T11:38:32;9.93;;;4.28;;
8574;SDS011;4325;42.520;27.448;2023-02-24T11:41:06;11.40;;;5.03;;
8574;SDS011;4325;42.520;27.448;2023-02-24T11:43:43;12.93;;;5.25;;
8574;SDS011;4325;42.520;27.448;2023-02-24T11:46:16;10.95;;;4.40;;
8574;SDS011;4325;42.520;27.448;2023-02-24T11:48:48;11.60;;;4.70;;
8574;SDS011;4325;42.520;27.448;2023-02-24T11:51:21;8.68;;;3.72;;
8574;SDS011;4325;42.520;27.448;2023-02-24T11:53:53;12.00;;;4.33;;
8574;SDS011;4325;42.520;27.448;2023-02-24T11:56:25;9.93;;;4.27;;
8574;SDS011;4325;42.520;27.448;2023-02-24T11:58:57;10.45;;;4.25;;
8574;SDS011;4325;42.520;27.448;2023-02-24T12:01:30;13.90;;;4.90;;
8574;SDS011;4325;42.520;27.448;2023-02-24T12:04:04;10.02;;;4.07;;
8574;SDS011;4325;42.520;27.448;2023-02-24T12:06:43;11.80;;;4.13;;
8574;SDS011;4325;42.520;27.448;2023-02-24T12:09:17;58.55;;;7.15;;
8574;SDS011;4325;42.520;27.448;2023-02-24T12:11:51;10.52;;;3.90;;
8574;SDS011;4325;42.520;27.448;2023-02-24T12:14:26;11.43;;;4.32;;
8574;SDS011;4325;42.520;27.448;2023-02-24T12:17:00;17.80;;;4.00;;
8574;SDS011;4325;42.520;27.448;2023-02-24T12:19:39;7.05;;;3.78;;
8574;SDS011;4325;42.520;27.448;2023-02-24T12:22:18;8.15;;;3.70;;
8574;SDS011;4325;42.520;27.448;2023-02-24T12:24:47;10.82;;;3.72;;
8574;SDS011;4325;42.520;27.448;2023-02-24T12:27:18;8.88;;;3.97;;
8574;SDS011;4325;42.520;27.448;2023-02-24T12:30:05;9.40;;;4.40;;
8574;SDS011;4325;42.520;27.448;2023-02-24T12:32:59;8.63;;;3.90;;
8574;SDS011;4325;42.520;27.448;2023-02-24T12:35:38;13.40;;;4.23;;
8574;SDS011;4325;42.520;27.448;2023-02-24T12:41:16;8.67;;;4.10;;
8574;SDS011;4325;42.520;27.448;2023-02-24T12:43:54;9.07;;;4.27;;
8574;SDS011;4325;42.520;27.448;2023-02-24T12:46:29;12.63;;;4.13;;
8574;SDS011;4325;42.520;27.448;2023-02-24T12:49:06;11.37;;;4.33;;
8574;SDS011;4325;42.520;27.448;2023-02-24T12:51:47;13.70;;;4.87;;
8574;SDS011;4325;42.520;27.448;2023-02-24T12:54:26;8.37;;;4.13;;
8574;SDS011;4325;42.520;27.448;2023-02-24T12:56:57;9.27;;;4.00;;
8574;SDS011;4325;42.520;27.448;2023-02-24T12:59:28;10.60;;;4.33;;
8574;SDS011;4325;42.520;27.448;2023-02-24T13:02:04;10.97;;;4.43;;
8574;SDS011;4325;42.520;27.448;2023-02-24T13:04:35;11.43;;;4.60;;
8574;SDS011;4325;42.520;27.448;2023-02-24T13:07:11;10.17;;;4.47;;
8574;SDS011;4325;42.520;27.448;2023-02-24T13:10:00;12.70;;;4.97;;
8574;SDS011;4325;42.520;27.448;2023-02-24T13:12:39;9.90;;;4.70;;
8574;SDS011;4325;42.520;27.448;2023-02-24T13:15:16;16.93;;;4.93;;
8574;SDS011;4325;42.520;27.448;2023-02-24T13:17:47;14.03;;;4.20;;
8574;SDS011;4325;42.520;27.448;2023-02-24T13:20:25;9.97;;;4.47;;
8574;SDS011;4325;42.520;27.448;2023-02-24T13:22:55;15.50;;;4.73;;
8574;SDS011;4325;42.520;27.448;2023-02-24T13:25:28;9.07;;;4.63;;
8574;SDS011;4325;42.520;27.448;2023-02-24T13:27:58;12.07;;;4.63;;
8574;SDS011;4325;42.520;27.448;2023-02-24T13:30:29;11.80;;;4.57;;
8574;SDS011;4325;42.520;27.448;2023-02-24T13:33:03;12.67;;;4.80;;
8574;SDS011;4325;42.520;27.448;2023-02-24T13:35:33;13.20;;;5.27;;
8574;SDS011;4325;42.520;27.448;2023-02-24T13:38:09;10.67;;;4.90;;
8574;SDS011;4325;42.520;27.448;2023-02-24T13:40:51;14.50;;;4.70;;
8574;SDS011;4325;42.520;27.448;2023-02-24T13:43:26;14.87;;;5.70;;
8574;SDS011;4325;42.520;27.448;2023-02-24T13:45:56;13.40;;;5.37;;
8574;SDS011;4325;42.520;27.448;2023-02-24T13:48:32;13.30;;;4.80;;
8574;SDS011;4325;42.520;27.448;2023-02-24T13:51:12;20.97;;;5.87;;
8574;SDS011;4325;42.520;27.448;2023-02-24T13:54:01;11.83;;;5.47;;
8574;SDS011;4325;42.520;27.448;2023-02-24T13:56:42;17.80;;;5.50;;
8574;SDS011;4325;42.520;27.448;2023-02-24T13:59:17;16.57;;;5.90;;
8574;SDS011;4325;42.520;27.448;2023-02-24T14:02:09;8.10;;;4.33;;
8574;SDS011;4325;42.520;27.448;2023-02-24T14:04:46;12.47;;;5.70;;
8574;SDS011;4325;42.520;27.448;2023-02-24T14:07:16;13.13;;;6.00;;
8574;SDS011;4325;42.520;27.448;2023-02-24T14:09:47;19.30;;;5.77;;
8574;SDS011;4325;42.520;27.448;2023-02-24T14:12:19;15.60;;;7.57;;
8574;SDS011;4325;42.520;27.448;2023-02-24T14:14:50;11.43;;;5.10;;
8574;SDS011;4325;42.520;27.448;2023-02-24T14:17:21;11.00;;;5.03;;
8574;SDS011;4325;42.520;27.448;2023-02-24T14:19:53;12.90;;;4.67;;
8574;SDS011;4325;42.520;27.448;2023-02-24T14:22:21;20.00;;;7.47;;
8574;SDS011;4325;42.520;27.448;2023-02-24T14:24:48;12.53;;;6.00;;
8574;SDS011;4325;42.520;27.448;2023-02-24T14:27:27;17.37;;;6.13;;
8574;SDS011;4325;42.520;27.448;2023-02-24T14:29:54;12.13;;;6.40;;
8574;SDS011;4325;42.520;27.448;2023-02-24T14:32:21;13.87;;;5.17;;
8574;SDS011;4325;42.520;27.448;2023-02-24T14:34:51;16.23;;;7.37;;
8574;SDS011;4325;42.520;27.448;2023-02-24T14:37:20;18.50;;;7.00;;
8574;SDS011;4325;42.520;27.448;2023-02-24T14:39:50;12.77;;;5.97;;
8574;SDS011;4325;42.520;27.448;2023-02-24T14:42:19;16.30;;;5.33;;
8574;SDS011;4325;42.520;27.448;2023-02-24T14:44:47;16.63;;;5.27;;
8574;SDS011;4325;42.520;27.448;2023-02-24T14:47:16;22.27;;;6.80;;
8574;SDS011;4325;42.520;27.448;2023-02-24T14:49:51;12.13;;;5.60;;
8574;SDS011;4325;42.520;27.448;2023-02-24T14:52:23;18.77;;;8.20;;
8574;SDS011;4325;42.520;27.448;2023-02-24T14:55:00;14.00;;;6.03;;
8574;SDS011;4325;42.520;27.448;2023-02-24T14:57:32;15.53;;;7.17;;
8574;SDS011;4325;42.520;27.448;2023-02-24T15:00:04;15.60;;;6.10;;
8574;SDS011;4325;42.520;27.448;2023-02-24T15:02:36;15.23;;;6.20;;
8574;SDS011;4325;42.520;27.448;2023-02-24T15:05:06;18.47;;;5.83;;
8574;SDS011;4325;42.520;27.448;2023-02-24T15:07:36;11.87;;;5.20;;
8574;SDS011;4325;42.520;27.448;2023-02-24T15:10:05;17.30;;;5.43;;
8574;SDS011;4325;42.520;27.448;2023-02-24T15:12:45;14.37;;;5.70;;
8574;SDS011;4325;42.520;27.448;2023-02-24T15:15:17;17.53;;;6.23;;
8574;SDS011;4325;42.520;27.448;2023-02-24T15:17:45;18.87;;;6.43;;
8574;SDS011;4325;42.520;27.448;2023-02-24T15:20:26;23.80;;;7.37;;
8574;SDS011;4325;42.520;27.448;2023-02-24T15:22:57;15.07;;;6.10;;
8574;SDS011;4325;42.520;27.448;2023-02-24T15:25:25;15.77;;;6.07;;
8574;SDS011;4325;42.520;27.448;2023-02-24T15:27:54;45.03;;;13.30;;
8574;SDS011;4325;42.520;27.448;2023-02-24T15:30:27;19.87;;;7.27;;
8574;SDS011;4325;42.520;27.448;2023-02-24T15:32:59;24.60;;;7.40;;
8574;SDS011;4325;42.520;27.448;2023-02-24T15:35:31;21.07;;;7.60;;